Time;durP1;ratioP1;P1;durP2;ratioP2;P2;SDS_P1;SDS_P2;PMS_P1;PMS_P2;Temp;Humidity;BMP_temperature;BMP_pressure;BME280_temperature;BME280_humidity;BME280_pressure;Samples;Min_cycle;Max_cycle;Signal;HPM_P1;HPM_P2
2021/05/20 00:01:07;;;;;;;1.27;1.17;;;;;;;;;;5081822;28;20225;-79
2021/05/20 00:03:35;;;;;;;1.53;1.00;;;;;;;;;;5087062;28;20226;-81
2021/05/20 00:06:05;;;;;;;1.80;1.33;;;;;;;;;;5091823;28;20211;-79
2021/05/20 00:08:33;;;;;;;1.20;1.03;;;;;;;;;;5082372;28;20218;-79
2021/05/20 00:11:02;;;;;;;2.13;1.27;;;;;;;;;;5083085;28;20198;-81
2021/05/20 00:13:30;;;;;;;1.30;1.20;;;;;;;;;;5084032;28;20221;-79
2021/05/20 00:15:58;;;;;;;3.43;1.40;;;;;;;;;;5084061;28;20674;-78
2021/05/20 00:18:26;;;;;;;1.83;1.30;;;;;;;;;;5057630;28;20203;-77
2021/05/20 00:20:54;;;;;;;2.50;1.50;;;;;;;;;;5087745;28;20210;-81
2021/05/20 00:23:23;;;;;;;3.00;1.90;;;;;;;;;;5086186;28;20360;-78
2021/05/20 00:25:51;;;;;;;1.70;1.60;;;;;;;;;;5080992;28;20214;-81
2021/05/20 00:28:20;;;;;;;2.37;1.70;;;;;;;;;;5075727;28;20213;-82
2021/05/20 00:30:48;;;;;;;3.53;1.50;;;;;;;;;;5096340;28;20671;-81
2021/05/20 00:33:16;;;;;;;1.63;1.43;;;;;;;;;;5077512;28;20202;-79
2021/05/20 00:35:44;;;;;;;1.83;1.30;;;;;;;;;;5074876;28;20206;-78
2021/05/20 00:38:12;;;;;;;1.50;1.40;;;;;;;;;;5076170;28;20206;-80
2021/05/20 00:40:41;;;;;;;3.63;1.60;;;;;;;;;;5084812;28;20210;-82
2021/05/20 00:43:09;;;;;;;1.53;1.40;;;;;;;;;;5056902;28;20309;-85
2021/05/20 00:45:37;;;;;;;1.67;1.40;;;;;;;;;;5082515;28;20725;-79
2021/05/20 00:48:07;;;;;;;2.17;1.20;;;;;;;;;;5085842;28;20194;-82
2021/05/20 00:50:35;;;;;;;2.63;1.40;;;;;;;;;;5060370;28;20218;-79
2021/05/20 00:53:03;;;;;;;1.70;1.30;;;;;;;;;;5077393;28;20434;-82
2021/05/20 00:55:34;;;;;;;1.93;1.50;;;;;;;;;;5079860;28;20201;-81
2021/05/20 00:58:03;;;;;;;1.40;1.30;;;;;;;;;;5084589;28;20202;-80
2021/05/20 01:00:31;;;;;;;2.97;1.30;;;;;;;;;;5076691;28;20231;-79
2021/05/20 01:03:01;;;;;;;1.67;1.10;;;;;;;;;;5081526;28;20202;-82
2021/05/20 01:05:29;;;;;;;1.87;1.40;;;;;;;;;;5053651;28;20207;-79
2021/05/20 01:07:57;;;;;;;1.60;1.50;;;;;;;;;;5076921;28;20210;-79
2021/05/20 01:10:25;;;;;;;2.30;1.70;;;;;;;;;;5064430;28;20234;-80
2021/05/20 01:12:53;;;;;;;1.50;1.40;;;;;;;;;;5087966;28;20210;-81
2021/05/20 01:15:25;;;;;;;1.70;1.60;;;;;;;;;;5069330;28;20212;-80
2021/05/20 01:17:53;;;;;;;1.50;1.40;;;;;;;;;;5081999;28;20206;-80
2021/05/20 01:20:23;;;;;;;2.27;1.53;;;;;;;;;;5077332;28;20226;-79
2021/05/20 01:22:52;;;;;;;1.57;1.47;;;;;;;;;;5073094;28;20221;-80
2021/05/20 01:25:20;;;;;;;2.03;1.60;;;;;;;;;;5078661;28;20242;-80
2021/05/20 01:27:48;;;;;;;1.40;1.17;;;;;;;;;;5061201;28;20577;-78
2021/05/20 01:30:17;;;;;;;4.40;1.63;;;;;;;;;;5078686;28;20692;-80
2021/05/20 01:32:45;;;;;;;3.03;1.37;;;;;;;;;;5082010;28;20217;-79
2021/05/20 01:35:14;;;;;;;2.67;1.73;;;;;;;;;;5075898;28;20199;-81
2021/05/20 01:37:42;;;;;;;1.67;1.53;;;;;;;;;;5080641;28;20211;-79
2021/05/20 01:40:12;;;;;;;2.07;1.43;;;;;;;;;;5078827;28;20237;-78
2021/05/20 01:42:40;;;;;;;1.53;1.30;;;;;;;;;;5075730;28;20206;-79
2021/05/20 01:45:09;;;;;;;2.10;1.33;;;;;;;;;;5077671;28;20218;-78
2021/05/20 01:47:37;;;;;;;1.57;1.47;;;;;;;;;;5079746;28;20210;-78
2021/05/20 01:50:06;;;;;;;1.50;1.40;;;;;;;;;;5052937;28;20600;-81
2021/05/20 01:52:34;;;;;;;1.87;1.40;;;;;;;;;;5084736;28;20256;-78
2021/05/20 01:55:04;;;;;;;2.47;1.90;;;;;;;;;;5083305;28;20202;-79
2021/05/20 01:57:32;;;;;;;1.60;1.50;;;;;;;;;;5088157;28;20667;-77
2021/05/20 02:00:02;;;;;;;2.30;1.30;;;;;;;;;;5100405;28;20229;-78
2021/05/20 02:02:31;;;;;;;3.73;1.43;;;;;;;;;;5082450;28;20217;-77
2021/05/20 02:04:59;;;;;;;1.20;1.10;;;;;;;;;;5086261;28;20274;-81
2021/05/20 02:07:28;;;;;;;2.10;1.20;;;;;;;;;;5089196;28;20211;-77
2021/05/20 02:09:56;;;;;;;1.30;1.13;;;;;;;;;;5082820;28;20230;-79
2021/05/20 02:12:24;;;;;;;1.43;1.20;;;;;;;;;;5080244;28;20211;-77
2021/05/20 02:14:54;;;;;;;1.33;1.10;;;;;;;;;;5078340;28;20210;-84
2021/05/20 02:17:22;;;;;;;1.73;1.20;;;;;;;;;;5075606;28;20213;-77
2021/05/20 02:19:50;;;;;;;1.93;1.10;;;;;;;;;;5071023;28;20235;-80
2021/05/20 02:22:18;;;;;;;1.00;0.90;;;;;;;;;;5061619;28;20572;-77
2021/05/20 02:24:46;;;;;;;3.30;1.63;;;;;;;;;;5075629;28;20231;-77
2021/05/20 02:27:14;;;;;;;1.20;0.93;;;;;;;;;;5074747;28;20194;-78
2021/05/20 02:29:43;;;;;;;1.30;1.20;;;;;;;;;;5086479;28;20222;-78
2021/05/20 02:32:11;;;;;;;1.23;1.00;;;;;;;;;;5086919;28;20205;-77
2021/05/20 02:34:39;;;;;;;1.17;1.07;;;;;;;;;;5061676;28;20202;-77
2021/05/20 02:37:07;;;;;;;1.57;1.30;;;;;;;;;;5062162;28;20202;-80
2021/05/20 02:39:35;;;;;;;2.10;1.23;;;;;;;;;;5059903;28;20229;-79
2021/05/20 02:42:04;;;;;;;1.33;0.97;;;;;;;;;;5083105;28;20964;-81
2021/05/20 02:44:33;;;;;;;1.53;1.10;;;;;;;;;;5093387;28;20238;-79
2021/05/20 02:47:01;;;;;;;1.30;1.20;;;;;;;;;;5081585;28;20211;-77
2021/05/20 02:49:30;;;;;;;1.97;1.00;;;;;;;;;;5081798;28;20294;-81
2021/05/20 02:51:58;;;;;;;1.97;1.13;;;;;;;;;;5083150;28;20202;-79
2021/05/20 02:54:26;;;;;;;1.47;1.00;;;;;;;;;;5076475;28;20210;-80
2021/05/20 02:56:54;;;;;;;1.00;1.00;;;;;;;;;;5076023;28;20238;-79
2021/05/20 02:59:22;;;;;;;1.73;0.90;;;;;;;;;;5078880;28;20683;-77
2021/05/20 03:01:50;;;;;;;1.43;1.10;;;;;;;;;;5070418;28;20214;-80
2021/05/20 03:04:19;;;;;;;1.10;1.00;;;;;;;;;;5080701;28;20202;-80
2021/05/20 03:06:47;;;;;;;1.63;0.90;;;;;;;;;;5076398;28;20684;-81
2021/05/20 03:09:15;;;;;;;0.90;0.90;;;;;;;;;;5077086;28;20233;-82
2021/05/20 03:11:43;;;;;;;1.93;1.10;;;;;;;;;;5083765;28;20217;-79
2021/05/20 03:14:11;;;;;;;1.10;0.93;;;;;;;;;;5083389;28;20213;-78
2021/05/20 03:16:39;;;;;;;1.33;1.13;;;;;;;;;;5081053;27;20217;-79
2021/05/20 03:19:07;;;;;;;0.93;0.93;;;;;;;;;;5074380;28;20218;-78
2021/05/20 03:21:36;;;;;;;2.67;1.00;;;;;;;;;;5075930;28;20206;-79
2021/05/20 03:24:05;;;;;;;1.07;1.00;;;;;;;;;;5076394;28;20213;-78
2021/05/20 03:26:33;;;;;;;1.10;1.00;;;;;;;;;;5079213;28;20230;-77
2021/05/20 03:29:01;;;;;;;1.10;1.00;;;;;;;;;;5077132;28;20219;-79
2021/05/20 03:31:30;;;;;;;0.90;0.90;;;;;;;;;;5052667;28;20679;-80
2021/05/20 03:33:58;;;;;;;1.30;0.97;;;;;;;;;;5071730;28;20206;-78
2021/05/20 03:36:26;;;;;;;1.40;1.00;;;;;;;;;;5077734;28;20202;-81
2021/05/20 03:38:55;;;;;;;1.37;0.90;;;;;;;;;;5050542;28;20242;-77
2021/05/20 03:41:23;;;;;;;1.33;0.80;;;;;;;;;;5095540;28;20199;-79
2021/05/20 03:43:51;;;;;;;1.17;1.07;;;;;;;;;;5073463;28;20203;-78
2021/05/20 03:46:29;;;;;;;1.10;1.00;;;;;;;;;;5073982;28;20226;-78
2021/05/20 03:48:57;;;;;;;1.37;1.07;;;;;;;;;;5077900;28;20218;-78
2021/05/20 03:51:25;;;;;;;1.13;0.87;;;;;;;;;;5053537;28;20572;-80
2021/05/20 03:53:53;;;;;;;1.27;0.93;;;;;;;;;;5079194;28;20210;-77
2021/05/20 03:56:22;;;;;;;2.23;1.00;;;;;;;;;;5063722;28;20206;-77
2021/05/20 03:58:50;;;;;;;2.00;1.00;;;;;;;;;;5082625;28;20225;-78
2021/05/20 04:01:18;;;;;;;1.30;1.20;;;;;;;;;;5080326;28;20220;-79
2021/05/20 04:03:46;;;;;;;1.20;1.10;;;;;;;;;;5067755;28;20203;-81
2021/05/20 04:06:14;;;;;;;1.40;1.10;;;;;;;;;;5061349;28;20225;-78
2021/05/20 04:08:42;;;;;;;1.10;1.00;;;;;;;;;;5085942;28;20234;-76
2021/05/20 04:11:10;;;;;;;1.80;1.20;;;;;;;;;;5059700;28;20206;-78
2021/05/20 04:13:40;;;;;;;1.03;1.03;;;;;;;;;;5079715;28;20676;-82
2021/05/20 04:16:11;;;;;;;1.10;1.00;;;;;;;;;;5056367;28;20214;-79
2021/05/20 04:18:40;;;;;;;1.97;1.20;;;;;;;;;;5083097;28;20229;-78
2021/05/20 04:21:08;;;;;;;1.07;0.80;;;;;;;;;;5078441;28;20195;-77
2021/05/20 04:23:42;;;;;;;1.80;1.20;;;;;;;;;;5079290;28;20218;-77
2021/05/20 04:26:10;;;;;;;1.47;1.20;;;;;;;;;;5088169;28;20230;-77
2021/05/20 04:28:39;;;;;;;1.40;1.30;;;;;;;;;;5059238;28;20222;-77
2021/05/20 04:31:07;;;;;;;0.93;0.93;;;;;;;;;;5077216;28;20206;-77
2021/05/20 04:33:35;;;;;;;2.03;0.80;;;;;;;;;;5082667;28;20213;-77
2021/05/20 04:36:04;;;;;;;0.87;0.87;;;;;;;;;;5096925;28;20570;-78
2021/05/20 04:38:32;;;;;;;1.00;0.90;;;;;;;;;;5079304;28;20213;-78
2021/05/20 04:41:00;;;;;;;1.63;1.00;;;;;;;;;;5080856;28;20218;-76
2021/05/20 04:43:28;;;;;;;1.03;0.93;;;;;;;;;;5081138;28;20215;-80
2021/05/20 04:45:58;;;;;;;0.80;0.80;;;;;;;;;;5073310;28;20245;-77
2021/05/20 04:48:26;;;;;;;0.93;0.90;;;;;;;;;;5075907;28;20206;-78
2021/05/20 04:50:56;;;;;;;1.00;0.90;;;;;;;;;;5057460;28;20206;-78
2021/05/20 04:53:24;;;;;;;0.93;0.80;;;;;;;;;;5073245;28;20236;-77
2021/05/20 04:55:52;;;;;;;1.63;0.90;;;;;;;;;;5088900;28;20202;-78
2021/05/20 04:58:21;;;;;;;0.70;0.70;;;;;;;;;;5090609;28;20206;-79
2021/05/20 05:00:49;;;;;;;1.10;0.80;;;;;;;;;;5085131;28;20683;-77
2021/05/20 05:03:18;;;;;;;0.90;0.90;;;;;;;;;;5086507;28;20233;-80
2021/05/20 05:05:47;;;;;;;0.97;0.87;;;;;;;;;;5079764;28;20224;-77
2021/05/20 05:08:15;;;;;;;0.70;0.70;;;;;;;;;;5076447;28;20209;-77
2021/05/20 05:10:43;;;;;;;3.17;1.00;;;;;;;;;;5077643;28;20225;-79
2021/05/20 05:13:11;;;;;;;0.93;0.90;;;;;;;;;;5082308;28;20210;-78
2021/05/20 05:15:39;;;;;;;0.80;0.70;;;;;;;;;;5075113;28;20210;-77
2021/05/20 05:18:07;;;;;;;0.80;0.80;;;;;;;;;;5058750;28;20682;-77
2021/05/20 05:20:36;;;;;;;0.80;0.80;;;;;;;;;;5071515;28;20621;-80
2021/05/20 05:23:05;;;;;;;1.20;1.10;;;;;;;;;;5069883;28;20583;-79
2021/05/20 05:25:36;;;;;;;1.23;0.80;;;;;;;;;;5079373;28;20566;-77
2021/05/20 05:28:05;;;;;;;1.00;0.90;;;;;;;;;;5081976;28;20198;-77
2021/05/20 05:30:34;;;;;;;1.43;1.20;;;;;;;;;;5081617;28;20218;-77
2021/05/20 05:33:02;;;;;;;2.23;0.80;;;;;;;;;;5058396;28;20210;-77
2021/05/20 05:35:30;;;;;;;1.07;0.97;;;;;;;;;;5062678;28;20202;-77
2021/05/20 05:37:59;;;;;;;0.90;0.90;;;;;;;;;;5078593;28;20601;-77
2021/05/20 05:40:27;;;;;;;2.13;1.03;;;;;;;;;;5058768;28;20218;-77
2021/05/20 05:42:55;;;;;;;1.10;1.00;;;;;;;;;;5074505;28;20210;-77
2021/05/20 05:45:22;;;;;;;1.60;1.00;;;;;;;;;;5075544;28;20217;-77
2021/05/20 05:47:50;;;;;;;1.30;1.10;;;;;;;;;;5079001;28;20700;-78
2021/05/20 05:50:19;;;;;;;1.50;1.07;;;;;;;;;;5053286;28;20218;-82
2021/05/20 05:52:47;;;;;;;1.20;1.10;;;;;;;;;;5083746;28;20210;-80
2021/05/20 05:55:15;;;;;;;1.67;1.20;;;;;;;;;;5056312;28;20198;-81
2021/05/20 05:57:44;;;;;;;0.80;0.80;;;;;;;;;;5069361;28;20211;-80
2021/05/20 06:00:14;;;;;;;2.30;1.17;;;;;;;;;;5078391;28;20642;-76
2021/05/20 06:02:44;;;;;;;1.13;0.90;;;;;;;;;;5072208;28;20210;-76
2021/05/20 06:05:13;;;;;;;1.20;1.10;;;;;;;;;;5088015;28;20198;-77
2021/05/20 06:07:43;;;;;;;2.10;1.00;;;;;;;;;;5065649;28;20227;-78
2021/05/20 06:10:12;;;;;;;1.37;1.10;;;;;;;;;;5057283;28;20238;-77
2021/05/20 06:12:41;;;;;;;1.30;1.20;;;;;;;;;;5069218;28;20202;-77
2021/05/20 06:15:10;;;;;;;1.20;1.10;;;;;;;;;;5056305;28;20213;-77
2021/05/20 06:17:38;;;;;;;1.77;1.20;;;;;;;;;;5073154;28;20210;-76
2021/05/20 06:20:08;;;;;;;4.50;1.03;;;;;;;;;;5054412;28;20218;-77
2021/05/20 06:22:37;;;;;;;1.63;1.10;;;;;;;;;;5075356;28;20707;-77
2021/05/20 06:25:06;;;;;;;1.83;1.27;;;;;;;;;;5054508;28;20198;-81
2021/05/20 06:27:34;;;;;;;1.57;1.10;;;;;;;;;;5058888;28;20226;-77
2021/05/20 06:30:04;;;;;;;1.77;1.30;;;;;;;;;;5074950;28;20222;-76
2021/05/20 06:32:33;;;;;;;1.10;1.00;;;;;;;;;;5069841;28;20207;-77
2021/05/20 06:35:01;;;;;;;2.97;0.90;;;;;;;;;;5051321;28;20203;-77
2021/05/20 06:37:29;;;;;;;1.77;1.30;;;;;;;;;;5072916;28;20680;-77
2021/05/20 06:39:57;;;;;;;1.00;0.87;;;;;;;;;;5053771;28;20229;-78
2021/05/20 06:42:25;;;;;;;0.80;0.70;;;;;;;;;;5073216;28;20202;-77
2021/05/20 06:44:53;;;;;;;0.70;0.70;;;;;;;;;;5075900;28;20206;-76
2021/05/20 06:47:21;;;;;;;1.30;0.90;;;;;;;;;;5052037;28;20244;-77
2021/05/20 06:49:51;;;;;;;2.70;1.00;;;;;;;;;;5056982;28;20230;-77
2021/05/20 06:52:20;;;;;;;1.10;1.00;;;;;;;;;;5073567;28;20215;-77
2021/05/20 06:54:48;;;;;;;0.83;0.83;;;;;;;;;;5069185;28;20210;-76
2021/05/20 06:57:23;;;;;;;0.80;0.80;;;;;;;;;;5047581;28;20207;-78
2021/05/20 07:00:00;;;;;;;6.40;1.20;;;;;;;;;;5071294;28;20222;-77
2021/05/20 07:02:31;;;;;;;2.67;1.07;;;;;;;;;;5068687;28;20209;-79
2021/05/20 07:04:59;;;;;;;1.13;1.03;;;;;;;;;;5070451;28;20211;-78
2021/05/20 07:07:28;;;;;;;3.70;0.93;;;;;;;;;;5045302;28;20229;-77
2021/05/20 07:09:56;;;;;;;1.87;0.90;;;;;;;;;;5066312;28;20241;-77
2021/05/20 07:12:24;;;;;;;1.07;0.97;;;;;;;;;;5085661;28;20551;-79
2021/05/20 07:14:52;;;;;;;1.00;0.90;;;;;;;;;;5084184;28;20664;-77
2021/05/20 07:17:20;;;;;;;1.00;1.00;;;;;;;;;;5058960;28;20199;-78
2021/05/20 07:19:49;;;;;;;1.07;0.97;;;;;;;;;;5068080;28;20229;-85
2021/05/20 07:22:17;;;;;;;1.73;0.90;;;;;;;;;;5069177;28;20206;-78
2021/05/20 07:24:46;;;;;;;3.03;1.00;;;;;;;;;;5061552;28;20214;-78
2021/05/20 07:27:14;;;;;;;1.20;1.00;;;;;;;;;;5078395;28;20233;-81
2021/05/20 07:29:42;;;;;;;1.97;1.30;;;;;;;;;;5085124;28;20229;-78
2021/05/20 07:32:16;;;;;;;1.40;1.27;;;;;;;;;;5060758;28;20194;-78
2021/05/20 07:34:44;;;;;;;1.83;1.40;;;;;;;;;;5064187;28;20209;-77
2021/05/20 07:37:13;;;;;;;2.03;1.10;;;;;;;;;;5071772;28;20210;-79
2021/05/20 07:39:41;;;;;;;1.00;1.00;;;;;;;;;;5069023;28;20230;-82
2021/05/20 07:42:09;;;;;;;2.07;1.20;;;;;;;;;;5066561;28;20214;-82
2021/05/20 07:44:38;;;;;;;4.93;1.20;;;;;;;;;;5066016;28;20206;-80
2021/05/20 07:47:06;;;;;;;1.60;1.27;;;;;;;;;;5066259;28;20226;-80
2021/05/20 07:49:37;;;;;;;2.30;1.30;;;;;;;;;;5073861;28;21880;-83
2021/05/20 07:52:05;;;;;;;1.73;1.20;;;;;;;;;;5068489;28;20213;-78
2021/05/20 07:54:34;;;;;;;1.37;1.27;;;;;;;;;;5056703;28;20213;-77
2021/05/20 07:57:02;;;;;;;2.77;1.20;;;;;;;;;;5063943;28;20202;-77
2021/05/20 07:59:31;;;;;;;1.50;1.03;;;;;;;;;;5065083;28;20222;-78
2021/05/20 08:02:07;;;;;;;1.67;1.10;;;;;;;;;;5060860;28;20202;-78
2021/05/20 08:04:36;;;;;;;0.90;0.90;;;;;;;;;;5064510;28;20206;-79
2021/05/20 08:07:28;;;;;;;1.20;1.10;;;;;;;;;;5065487;28;20226;-77
2021/05/20 08:10:09;;;;;;;1.40;1.20;;;;;;;;;;5056977;28;20600;-77
2021/05/20 08:12:37;;;;;;;1.33;0.93;;;;;;;;;;5070283;28;20672;-83
2021/05/20 08:15:06;;;;;;;3.43;1.33;;;;;;;;;;5064420;28;21431;-77
2021/05/20 08:17:34;;;;;;;1.10;1.00;;;;;;;;;;5063448;28;20233;-78
2021/05/20 08:20:04;;;;;;;1.57;1.20;;;;;;;;;;5070546;28;20223;-77
2021/05/20 08:22:37;;;;;;;1.63;1.10;;;;;;;;;;5070799;28;20217;-78
2021/05/20 08:25:25;;;;;;;1.27;1.03;;;;;;;;;;5067692;28;20221;-79
2021/05/20 08:27:54;;;;;;;1.87;1.20;;;;;;;;;;5082887;28;20227;-76
2021/05/20 08:30:22;;;;;;;2.00;1.03;;;;;;;;;;5062693;28;20222;-76
2021/05/20 08:32:50;;;;;;;1.07;0.90;;;;;;;;;;5045714;28;20213;-77
2021/05/20 08:35:18;;;;;;;1.43;1.27;;;;;;;;;;5065303;28;20207;-79
2021/05/20 08:37:46;;;;;;;1.37;1.00;;;;;;;;;;5064308;28;20217;-76
2021/05/20 08:40:15;;;;;;;0.90;0.90;;;;;;;;;;5064367;28;20214;-76
2021/05/20 08:42:43;;;;;;;2.00;1.20;;;;;;;;;;5046246;28;20579;-77
2021/05/20 08:45:14;;;;;;;1.13;1.00;;;;;;;;;;5068875;28;20598;-77
2021/05/20 08:47:43;;;;;;;1.50;1.20;;;;;;;;;;5068445;28;20229;-76
2021/05/20 08:50:12;;;;;;;1.90;1.10;;;;;;;;;;5073471;28;20738;-80
2021/05/20 08:52:41;;;;;;;0.80;0.80;;;;;;;;;;5066120;28;20203;-82
2021/05/20 08:55:11;;;;;;;1.07;1.00;;;;;;;;;;5053443;28;20729;-82
2021/05/20 08:57:39;;;;;;;1.37;0.90;;;;;;;;;;5071473;28;20236;-77
2021/05/20 09:00:11;;;;;;;2.00;1.13;;;;;;;;;;5075728;28;20230;-77
2021/05/20 09:02:39;;;;;;;1.20;1.10;;;;;;;;;;5084388;28;20220;-77
2021/05/20 09:05:12;;;;;;;1.20;1.00;;;;;;;;;;5078200;28;20200;-78
2021/05/20 09:07:42;;;;;;;0.90;0.90;;;;;;;;;;5081111;28;20683;-79
2021/05/20 09:10:19;;;;;;;1.63;1.00;;;;;;;;;;5080986;28;20256;-83
2021/05/20 09:12:49;;;;;;;1.10;0.97;;;;;;;;;;5078381;28;20745;-79
2021/05/20 09:15:22;;;;;;;1.10;1.00;;;;;;;;;;5065082;28;20209;-79
2021/05/20 09:17:51;;;;;;;1.10;1.00;;;;;;;;;;5070085;28;20203;-79
2021/05/20 09:20:22;;;;;;;0.80;0.80;;;;;;;;;;5054819;28;20230;-79
2021/05/20 09:23:04;;;;;;;1.93;1.53;;;;;;;;;;5073803;28;20210;-81
2021/05/20 09:25:35;;;;;;;0.90;0.70;;;;;;;;;;5060508;28;20202;-79
2021/05/20 09:28:05;;;;;;;1.53;1.00;;;;;;;;;;5066640;28;20221;-78
2021/05/20 09:30:35;;;;;;;1.00;0.90;;;;;;;;;;5080755;28;20478;-77
2021/05/20 09:33:07;;;;;;;1.13;1.00;;;;;;;;;;5074251;28;20656;-79
2021/05/20 09:35:37;;;;;;;1.00;0.90;;;;;;;;;;5083969;28;20214;-77
2021/05/20 09:38:10;;;;;;;2.20;0.87;;;;;;;;;;5077930;28;20198;-75
2021/05/20 09:40:40;;;;;;;2.30;1.00;;;;;;;;;;5074614;28;20203;-80
2021/05/20 09:43:19;;;;;;;1.20;1.10;;;;;;;;;;5060070;28;20218;-79
2021/05/20 09:45:48;;;;;;;2.30;1.10;;;;;;;;;;5083002;28;20206;-78
2021/05/20 09:48:17;;;;;;;1.07;0.93;;;;;;;;;;5097873;28;20466;-82
2021/05/20 09:50:46;;;;;;;1.43;1.30;;;;;;;;;;5087151;28;20217;-81
2021/05/20 09:53:16;;;;;;;2.13;1.30;;;;;;;;;;5074828;28;20213;-77
2021/05/20 09:55:46;;;;;;;1.07;1.00;;;;;;;;;;5069117;28;20201;-78
2021/05/20 09:58:15;;;;;;;2.50;1.10;;;;;;;;;;5074457;28;20218;-82
2021/05/20 10:00:43;;;;;;;1.70;1.00;;;;;;;;;;5080153;28;20217;-78
2021/05/20 10:03:14;;;;;;;1.30;1.00;;;;;;;;;;5081033;28;20214;-78
2021/05/20 10:05:45;;;;;;;0.90;0.90;;;;;;;;;;5077002;28;20199;-77
2021/05/20 10:08:14;;;;;;;0.90;0.90;;;;;;;;;;5078209;28;20245;-77
2021/05/20 10:10:45;;;;;;;2.73;1.10;;;;;;;;;;5094628;28;20211;-78
2021/05/20 10:13:15;;;;;;;1.07;1.00;;;;;;;;;;5087505;28;20198;-79
2021/05/20 10:15:43;;;;;;;1.60;1.00;;;;;;;;;;5075945;28;20207;-78
2021/05/20 10:18:13;;;;;;;2.10;1.33;;;;;;;;;;5070007;28;20202;-78
2021/05/20 10:20:43;;;;;;;1.03;1.00;;;;;;;;;;5085134;28;20206;-78
2021/05/20 10:23:12;;;;;;;1.70;0.80;;;;;;;;;;5074780;28;20203;-78
2021/05/20 10:25:42;;;;;;;0.97;0.90;;;;;;;;;;5080661;28;20669;-80
2021/05/20 10:28:12;;;;;;;1.43;0.90;;;;;;;;;;5082284;28;20568;-78
2021/05/20 10:30:42;;;;;;;0.80;0.80;;;;;;;;;;5087348;28;20225;-77
2021/05/20 10:33:11;;;;;;;0.90;0.90;;;;;;;;;;5077001;28;20586;-77
2021/05/20 10:35:43;;;;;;;1.03;0.80;;;;;;;;;;5069815;28;20218;-77
2021/05/20 10:38:12;;;;;;;0.87;0.83;;;;;;;;;;5066114;28;20210;-77
2021/05/20 10:40:42;;;;;;;1.53;1.30;;;;;;;;;;5082347;28;20679;-78
2021/05/20 10:43:13;;;;;;;1.50;1.33;;;;;;;;;;5079277;28;20191;-82
2021/05/20 10:45:45;;;;;;;1.90;1.00;;;;;;;;;;5079954;28;20201;-78
2021/05/20 10:48:25;;;;;;;2.43;1.07;;;;;;;;;;5064191;28;20207;-78
2021/05/20 10:51:04;;;;;;;1.40;1.30;;;;;;;;;;5086815;28;20210;-80
2021/05/20 10:54:09;;;;;;;2.00;1.10;;;;;;;;;;5086956;28;20206;-79
2021/05/20 10:56:50;;;;;;;1.97;1.37;;;;;;;;;;5100849;28;20201;-78
2021/05/20 10:59:45;;;;;;;2.17;1.10;;;;;;;;;;5061411;28;20205;-78
2021/05/20 11:02:39;;;;;;;1.40;1.30;;;;;;;;;;5075808;28;20207;-78
2021/05/20 11:05:54;;;;;;;0.90;0.90;;;;;;;;;;5058855;28;20202;-78
2021/05/20 11:08:53;;;;;;;1.00;1.00;;;;;;;;;;5066169;28;20198;-78
2021/05/20 11:11:37;;;;;;;1.87;0.93;;;;;;;;;;5060697;28;20202;-78
2021/05/20 11:14:27;;;;;;;1.33;0.80;;;;;;;;;;5063542;28;20202;-77
2021/05/20 11:16:55;;;;;;;1.17;1.07;;;;;;;;;;5072728;28;20195;-78
2021/05/20 11:19:28;;;;;;;1.20;0.90;;;;;;;;;;5062382;28;20214;-78
2021/05/20 11:22:12;;;;;;;2.20;1.07;;;;;;;;;;5077029;28;20582;-79
2021/05/20 11:25:09;;;;;;;1.10;1.00;;;;;;;;;;5080574;28;20206;-77
2021/05/20 11:27:38;;;;;;;2.10;1.10;;;;;;;;;;5076446;28;20227;-77
2021/05/20 11:30:07;;;;;;;1.10;1.10;;;;;;;;;;5075662;28;20866;-77
2021/05/20 11:32:36;;;;;;;1.50;1.00;;;;;;;;;;5081144;28;20198;-78
2021/05/20 11:35:21;;;;;;;1.63;0.83;;;;;;;;;;5059463;28;20573;-78
2021/05/20 11:37:50;;;;;;;0.90;0.90;;;;;;;;;;5055928;28;20207;-78
2021/05/20 11:40:26;;;;;;;1.10;0.90;;;;;;;;;;5071383;28;20222;-77
2021/05/20 11:42:55;;;;;;;0.97;0.90;;;;;;;;;;5061208;28;20694;-78
2021/05/20 11:45:24;;;;;;;1.10;1.00;;;;;;;;;;5078039;28;20200;-77
2021/05/20 11:47:53;;;;;;;0.70;0.70;;;;;;;;;;5078358;28;20209;-79
2021/05/20 11:54:49;;;;;;;0.97;0.87;;;;;;;;;;5083748;28;20213;-78
2021/05/20 11:57:20;;;;;;;0.80;0.80;;;;;;;;;;5068159;28;20213;-80
2021/05/20 11:59:49;;;;;;;0.90;0.90;;;;;;;;;;5079080;28;20229;-77
2021/05/20 12:02:21;;;;;;;1.52;1.00;;;;;;;;;;5071291;28;20202;-78
2021/05/20 12:04:57;;;;;;;1.33;1.00;;;;;;;;;;5071225;28;20209;-77
2021/05/20 12:07:26;;;;;;;0.70;0.70;;;;;;;;;;5072919;28;20274;-78
2021/05/20 12:10:07;;;;;;;0.70;0.70;;;;;;;;;;5070055;28;20458;-78
2021/05/20 12:12:37;;;;;;;0.73;0.73;;;;;;;;;;5086667;28;20202;-79
2021/05/20 12:15:13;;;;;;;1.17;0.60;;;;;;;;;;5076514;28;20669;-77
2021/05/20 12:17:41;;;;;;;1.17;0.80;;;;;;;;;;5073633;28;20201;-76
2021/05/20 12:20:10;;;;;;;2.10;0.90;;;;;;;;;;5052354;28;20241;-76
2021/05/20 12:22:39;;;;;;;1.20;0.88;;;;;;;;;;5072646;28;20209;-76
2021/05/20 12:25:10;;;;;;;0.70;0.70;;;;;;;;;;5068896;28;20198;-77
2021/05/20 12:27:45;;;;;;;1.30;0.90;;;;;;;;;;5092566;28;20217;-76
2021/05/20 12:30:18;;;;;;;0.80;0.80;;;;;;;;;;5052533;28;20228;-77
2021/05/20 12:32:46;;;;;;;1.02;0.70;;;;;;;;;;5069982;28;20209;-77
2021/05/20 12:35:20;;;;;;;1.33;0.82;;;;;;;;;;5057776;28;20680;-76
2021/05/20 12:37:58;;;;;;;1.52;0.70;;;;;;;;;;5073410;28;20217;-76
2021/05/20 12:40:28;;;;;;;1.23;0.70;;;;;;;;;;5075847;28;20484;-77
2021/05/20 12:43:19;;;;;;;0.70;0.70;;;;;;;;;;5074061;28;20215;-76
2021/05/20 12:45:53;;;;;;;0.70;0.60;;;;;;;;;;5052067;28;20206;-76
2021/05/20 12:48:26;;;;;;;0.82;0.82;;;;;;;;;;5074696;28;20194;-76
2021/05/20 12:50:55;;;;;;;0.82;0.70;;;;;;;;;;5071028;28;20591;-76
2021/05/20 12:53:28;;;;;;;0.73;0.70;;;;;;;;;;5076777;28;20218;-77
2021/05/20 12:55:59;;;;;;;1.83;0.68;;;;;;;;;;5073552;28;20213;-76
2021/05/20 12:58:53;;;;;;;2.78;1.15;;;;;;;;;;5073961;28;20571;-76
2021/05/20 13:01:23;;;;;;;0.63;0.63;;;;;;;;;;5072345;28;21445;-76
2021/05/20 13:03:53;;;;;;;0.65;0.65;;;;;;;;;;5074320;28;20202;-75
2021/05/20 13:06:23;;;;;;;2.50;0.70;;;;;;;;;;5073529;28;20664;-76
2021/05/20 13:08:52;;;;;;;2.95;0.80;;;;;;;;;;5075878;28;20229;-76
2021/05/20 13:11:23;;;;;;;2.85;0.82;;;;;;;;;;5055262;28;20766;-75
2021/05/20 13:13:53;;;;;;;0.98;0.77;;;;;;;;;;5071539;28;20206;-75
2021/05/20 13:16:33;;;;;;;1.10;1.00;;;;;;;;;;5072150;28;20202;-75
2021/05/20 13:22:21;;;;;;;1.83;0.90;;;;;;;;;;5073155;28;20206;-77
2021/05/20 13:25:11;;;;;;;1.70;0.80;;;;;;;;;;5070503;28;20202;-77
2021/05/20 13:27:41;;;;;;;2.13;1.35;;;;;;;;;;5070687;28;20217;-77
2021/05/20 13:30:13;;;;;;;0.80;0.80;;;;;;;;;;5067927;28;20248;-78
2021/05/20 13:32:46;;;;;;;0.88;0.88;;;;;;;;;;5094705;28;20194;-77
2021/05/20 13:35:15;;;;;;;1.05;0.95;;;;;;;;;;5070573;28;20211;-77
2021/05/20 13:37:43;;;;;;;1.77;0.80;;;;;;;;;;5068239;28;20206;-77
2021/05/20 13:40:15;;;;;;;0.80;0.80;;;;;;;;;;5068101;28;20217;-78
2021/05/20 13:42:44;;;;;;;1.58;0.93;;;;;;;;;;5069213;28;20641;-78
2021/05/20 13:45:13;;;;;;;0.80;0.77;;;;;;;;;;5052031;28;20688;-77
2021/05/20 13:47:42;;;;;;;0.70;0.70;;;;;;;;;;5064388;28;20206;-77
2021/05/20 13:50:11;;;;;;;1.20;0.80;;;;;;;;;;5080175;28;20230;-77
2021/05/20 13:52:41;;;;;;;1.20;0.70;;;;;;;;;;5055467;28;20570;-78
2021/05/20 13:55:10;;;;;;;1.70;0.90;;;;;;;;;;5071611;28;20225;-78
2021/05/20 13:57:38;;;;;;;0.90;0.70;;;;;;;;;;5070609;28;20210;-78
2021/05/20 14:00:10;;;;;;;0.70;0.70;;;;;;;;;;5072854;28;20237;-78
2021/05/20 14:02:38;;;;;;;1.00;0.70;;;;;;;;;;5054010;28;20202;-78
2021/05/20 14:05:08;;;;;;;0.85;0.85;;;;;;;;;;5068632;28;20199;-78
2021/05/20 14:07:36;;;;;;;0.80;0.80;;;;;;;;;;5074703;28;21224;-78
2021/05/20 14:10:05;;;;;;;1.67;0.73;;;;;;;;;;5070637;28;20226;-77
2021/05/20 14:12:33;;;;;;;0.70;0.70;;;;;;;;;;5071454;28;20206;-77
2021/05/20 14:15:02;;;;;;;1.10;0.80;;;;;;;;;;5058517;28;20203;-77
2021/05/20 14:17:30;;;;;;;0.75;0.70;;;;;;;;;;5066090;28;20210;-77
2021/05/20 14:20:01;;;;;;;0.75;0.75;;;;;;;;;;5077818;28;20238;-77
2021/05/20 14:22:30;;;;;;;0.77;0.77;;;;;;;;;;5073817;28;20579;-77
2021/05/20 14:24:58;;;;;;;1.10;0.90;;;;;;;;;;5055566;28;20198;-77
2021/05/20 14:27:26;;;;;;;0.70;0.70;;;;;;;;;;5074700;28;20676;-77
2021/05/20 14:29:54;;;;;;;1.33;0.80;;;;;;;;;;5082869;28;20708;-77
2021/05/20 14:32:24;;;;;;;1.02;0.80;;;;;;;;;;5078599;28;20222;-75
2021/05/20 14:34:54;;;;;;;0.85;0.75;;;;;;;;;;5096926;28;20203;-76
2021/05/20 14:37:22;;;;;;;0.93;0.70;;;;;;;;;;5074407;28;20198;-76
2021/05/20 14:39:52;;;;;;;0.93;0.80;;;;;;;;;;5063438;28;20223;-76
2021/05/20 14:42:22;;;;;;;1.95;0.75;;;;;;;;;;5079053;28;20675;-76
2021/05/20 14:44:51;;;;;;;0.70;0.70;;;;;;;;;;5096727;28;20206;-76
2021/05/20 14:47:19;;;;;;;1.25;0.90;;;;;;;;;;5077752;28;20203;-76
2021/05/20 14:49:50;;;;;;;0.80;0.80;;;;;;;;;;5074460;28;20230;-75
2021/05/20 14:52:25;;;;;;;0.80;0.80;;;;;;;;;;5077121;28;20229;-77
2021/05/20 14:54:59;;;;;;;1.20;0.80;;;;;;;;;;5081478;28;20197;-78
2021/05/20 15:06:01;;;;;;;0.80;0.80;;;;;;;;;;5058304;28;20198;-77
2021/05/20 15:08:29;;;;;;;1.20;0.90;;;;;;;;;;5058125;28;20202;-78
2021/05/20 15:11:06;;;;;;;1.52;0.77;;;;;;;;;;5053167;28;20242;-76
2021/05/20 15:13:42;;;;;;;0.70;0.60;;;;;;;;;;5071845;28;20210;-76
2021/05/20 15:16:16;;;;;;;0.60;0.60;;;;;;;;;;5072795;28;20995;-76
2021/05/20 15:18:44;;;;;;;1.33;1.30;;;;;;;;;;5068623;28;20226;-76